Nordic London — MARJ7 — position and weather

sailwx.info

Track history (hours):
 
Tides and Currents Weather Stations Pressure Air Temp Water Temp Dewpoint Dewpoint Depression Visibility Wind Speed Wind Dir Waves Ship Positions

Nordic London

Last reported at 2018-Feb-16 03:00 UTC. Time now 2018-Feb-23 16:02 UTC.
Position N 27°49' W 097°28'.

Length 185 m; draft 10.1 m.

Type: Cargo ship. MMSI: 232006748.

Date/timePositionNaut miles runAvg speedWind from/ knotsBaromVisibWave heightAir tempDewpointWater temp
2018-Feb-16 03:00N 27°49' W 097°28'0 0.0
2018-Feb-16 02:20N 27°49' W 097°28'0 0.0
2018-Feb-16 01:00N 27°49' W 097°28'0 0.0
2018-Feb-15 23:59N 27°49' W 097°28'0 0.0
2018-Feb-15 23:18N 27°49' W 097°28'  
2018-Feb-12 21:38N 27°49' W 097°28'0 0.3
2018-Feb-12 21:29N 27°49' W 097°28'3 3.9
2018-Feb-12 20:47N 27°49' W 097°25'2 7.5
2018-Feb-12 20:30N 27°49' W 097°22'510.8
2018-Feb-12 20:00N 27°49' W 097°16'5 9.8
2018-Feb-12 19:30N 27°49' W 097°11'510.0
2018-Feb-12 18:58N 27°50' W 097°05'5 9.5
2018-Feb-12 18:30N 27°49' W 096°60'3 6.7
2018-Feb-12 17:59N 27°47' W 096°56'3 6.4
2018-Feb-12 17:29N 27°46' W 096°53'3 7.1
2018-Feb-12 17:00N 27°44' W 096°50'4 7.9
2018-Feb-12 16:30N 27°43' W 096°46'611.3
2018-Feb-12 16:00N 27°40' W 096°40'611.5
2018-Feb-12 15:29N 27°37' W 096°34'611.4
2018-Feb-12 15:00N 27°35' W 096°29'  
Track history (hours):
 
Tides and Currents Weather Stations Pressure Air Temp Water Temp Dewpoint Dewpoint Depression Visibility Wind Speed Wind Dir Waves Ship Positions

Nordic London

Last reported at 2018-Feb-16 03:00 UTC. Time now 2018-Feb-23 16:02 UTC.
Position N 27°49' W 097°28'.

Length 185 m; draft 10.1 m.

Type: Cargo ship. MMSI: 232006748.

Date/timePositionNaut miles runAvg speedWind from/ knotsBaromVisibWave heightAir tempDewpointWater temp
2018-Feb-16 03:00N 27°49' W 097°28'0 0.0
2018-Feb-16 02:20N 27°49' W 097°28'0 0.0
2018-Feb-16 01:00N 27°49' W 097°28'0 0.0
2018-Feb-15 23:59N 27°49' W 097°28'0 0.0
2018-Feb-15 23:18N 27°49' W 097°28'  
2018-Feb-12 21:38N 27°49' W 097°28'0 0.3
2018-Feb-12 21:29N 27°49' W 097°28'3 3.9
2018-Feb-12 20:47N 27°49' W 097°25'2 7.5
2018-Feb-12 20:30N 27°49' W 097°22'510.8
2018-Feb-12 20:00N 27°49' W 097°16'5 9.8
2018-Feb-12 19:30N 27°49' W 097°11'510.0
2018-Feb-12 18:58N 27°50' W 097°05'5 9.5
2018-Feb-12 18:30N 27°49' W 096°60'3 6.7
2018-Feb-12 17:59N 27°47' W 096°56'3 6.4
2018-Feb-12 17:29N 27°46' W 096°53'3 7.1
2018-Feb-12 17:00N 27°44' W 096°50'4 7.9
2018-Feb-12 16:30N 27°43' W 096°46'611.3
2018-Feb-12 16:00N 27°40' W 096°40'611.5
2018-Feb-12 15:29N 27°37' W 096°34'611.4
2018-Feb-12 15:00N 27°35' W 096°29'  

Dump ship's entire track history